createdAt,value
2023-02-13T00:01:17.526Z,20.17
2023-02-13T00:03:45.350Z,19.38
2023-02-13T00:06:23.245Z,19.25
2023-02-13T00:08:51.372Z,19.35
2023-02-13T00:11:20.606Z,17.38
2023-02-13T00:13:48.440Z,18.38
2023-02-13T00:16:16.305Z,19.15
2023-02-13T00:18:44.219Z,20.23
2023-02-13T00:21:13.780Z,17.55
2023-02-13T00:23:41.541Z,19.52
2023-02-13T00:26:14.068Z,20.63
2023-02-13T00:28:45.895Z,19.63
2023-02-13T00:31:19.083Z,20.30
2023-02-13T00:33:47.846Z,17.75
2023-02-13T00:36:22.074Z,20.05
2023-02-13T00:38:50.431Z,21.67
2023-02-13T00:41:18.283Z,23.55
2023-02-13T00:43:47.450Z,18.65
2023-02-13T00:46:17.243Z,20.25
2023-02-13T00:48:45.517Z,20.52
2023-02-13T00:51:13.408Z,19.90
2023-02-13T00:53:41.427Z,20.85
2023-02-13T00:56:09.767Z,23.05
2023-02-13T00:58:38.897Z,21.10
2023-02-13T01:01:06.833Z,18.58
2023-02-13T01:03:35.675Z,23.15
2023-02-13T01:06:03.746Z,21.00
2023-02-13T01:08:32.931Z,24.25
2023-02-13T01:11:01.064Z,21.70
2023-02-13T01:13:29.628Z,22.08
2023-02-13T01:15:57.558Z,21.95
2023-02-13T01:18:26.921Z,21.90
2023-02-13T01:21:08.320Z,23.17
2023-02-13T01:23:38.566Z,25.40
2023-02-13T01:26:10.803Z,23.85
2023-02-13T01:28:38.805Z,23.90
2023-02-13T01:31:06.697Z,23.27
2023-02-13T01:33:35.974Z,21.63
2023-02-13T01:36:14.129Z,22.60
2023-02-13T01:38:42.240Z,24.70
2023-02-13T01:41:10.351Z,24.65
2023-02-13T01:43:52.328Z,23.00
2023-02-13T01:46:29.572Z,24.88
2023-02-13T01:49:23.138Z,25.63
2023-02-13T01:51:55.908Z,23.30
2023-02-13T01:54:33.000Z,24.40
2023-02-13T01:57:08.951Z,25.55
2023-02-13T01:59:50.114Z,25.17
2023-02-13T02:02:19.028Z,22.73
2023-02-13T02:04:48.338Z,25.23
2023-02-13T02:07:26.480Z,25.60
2023-02-13T02:10:00.305Z,26.25
2023-02-13T02:12:32.254Z,22.80
2023-02-13T02:15:04.047Z,24.23
2023-02-13T02:17:33.793Z,22.17
2023-02-13T02:20:19.354Z,26.33
2023-02-13T02:23:03.453Z,24.45
2023-02-13T02:26:11.245Z,24.38
2023-02-13T02:29:23.297Z,25.30
2023-02-13T02:32:37.938Z,27.80
2023-02-13T02:35:27.779Z,23.15
2023-02-13T02:38:37.312Z,25.40
2023-02-13T02:41:42.217Z,25.15
2023-02-13T02:44:32.303Z,23.17
2023-02-13T02:47:52.937Z,25.48
2023-02-13T02:50:50.403Z,23.48
2023-02-13T02:54:03.470Z,22.90
2023-02-13T02:56:46.698Z,22.77
2023-02-13T02:59:55.224Z,24.60
2023-02-13T03:02:42.673Z,24.08
2023-02-13T03:05:49.142Z,26.52
2023-02-13T03:08:37.883Z,24.60
2023-02-13T03:11:25.423Z,23.25
2023-02-13T03:13:54.511Z,25.73
2023-02-13T03:16:44.199Z,24.05
2023-02-13T03:19:56.791Z,21.88
2023-02-13T03:22:52.623Z,24.02
2023-02-13T03:25:43.517Z,23.00
2023-02-13T03:28:49.077Z,24.20
2023-02-13T03:31:49.772Z,25.05
2023-02-13T03:34:23.608Z,22.83
2023-02-13T03:37:22.412Z,26.65
2023-02-13T03:40:08.168Z,23.73
2023-02-13T03:42:42.494Z,23.88
2023-02-13T03:45:51.463Z,25.42
2023-02-13T03:48:54.516Z,28.88
2023-02-13T03:51:40.731Z,25.52
2023-02-13T03:54:42.531Z,23.70
2023-02-13T03:57:33.850Z,26.33
2023-02-13T04:00:06.493Z,24.10
2023-02-13T04:02:54.585Z,25.52
2023-02-13T04:07:53.884Z,25.85
2023-02-13T04:10:24.647Z,26.75
2023-02-13T04:13:14.440Z,20.17
2023-02-13T04:15:55.563Z,25.00
2023-02-13T04:18:31.044Z,23.25
2023-02-13T04:21:06.754Z,24.73
2023-02-13T04:23:36.839Z,24.00
2023-02-13T04:26:11.965Z,24.55
2023-02-13T04:28:39.806Z,24.52
2023-02-13T04:31:07.786Z,26.95
2023-02-13T04:33:35.681Z,27.02
2023-02-13T04:36:03.856Z,27.13
2023-02-13T04:38:31.754Z,24.88
2023-02-13T04:40:59.851Z,24.58
2023-02-13T04:43:27.945Z,26.10
2023-02-13T04:45:55.967Z,24.83
2023-02-13T04:48:23.879Z,25.65
2023-02-13T04:50:51.705Z,25.77
2023-02-13T04:53:19.597Z,25.25
2023-02-13T04:55:47.378Z,21.90
2023-02-13T04:58:15.164Z,25.92
2023-02-13T05:00:43.178Z,23.13
2023-02-13T05:03:13.614Z,26.35
2023-02-13T05:05:41.524Z,22.27
2023-02-13T05:08:09.751Z,22.23
2023-02-13T05:10:37.977Z,23.08
2023-02-13T05:13:05.913Z,26.52
2023-02-13T05:15:33.889Z,21.95
2023-02-13T05:18:01.873Z,21.73
2023-02-13T05:20:29.716Z,21.73
2023-02-13T05:23:16.615Z,21.73
2023-02-13T05:25:44.441Z,22.05
2023-02-13T05:28:31.297Z,22.52
2023-02-13T05:30:59.803Z,20.70
2023-02-13T05:33:27.817Z,19.67
2023-02-13T05:35:55.507Z,19.80
2023-02-13T05:38:23.440Z,20.63
2023-02-13T05:40:51.383Z,21.00
2023-02-13T05:43:20.405Z,19.27
2023-02-13T05:45:48.408Z,20.92
2023-02-13T05:48:16.180Z,20.48
2023-02-13T05:50:46.138Z,20.60
2023-02-13T05:53:14.035Z,18.30
2023-02-13T05:55:41.833Z,19.17
2023-02-13T05:58:09.608Z,19.98
2023-02-13T06:00:37.272Z,18.90
2023-02-13T06:03:05.036Z,19.85
2023-02-13T06:05:32.865Z,19.75
2023-02-13T06:08:00.819Z,23.85
2023-02-13T06:10:28.526Z,18.83
2023-02-13T06:12:56.286Z,19.20
2023-02-13T06:15:24.068Z,18.52
2023-02-13T06:17:51.938Z,20.05
2023-02-13T06:20:19.973Z,18.02
2023-02-13T06:22:52.222Z,17.50
2023-02-13T06:25:20.845Z,21.15
2023-02-13T06:27:50.281Z,20.40
2023-02-13T06:30:18.804Z,18.75
2023-02-13T06:32:48.116Z,20.65
2023-02-13T06:35:16.804Z,18.90
2023-02-13T06:37:45.466Z,20.27
2023-02-13T06:40:14.924Z,20.00
2023-02-13T06:42:44.052Z,18.05
2023-02-13T06:45:13.208Z,17.50
2023-02-13T06:47:43.653Z,17.25
2023-02-13T06:50:14.397Z,17.95
2023-02-13T06:52:52.629Z,14.20
2023-02-13T06:55:20.968Z,15.90
2023-02-13T06:57:50.443Z,18.55
2023-02-13T07:00:19.443Z,18.23
2023-02-13T07:02:47.879Z,18.23
2023-02-13T07:05:16.002Z,17.48
2023-02-13T07:07:44.097Z,17.48
2023-02-13T07:10:14.966Z,18.58
2023-02-13T07:12:45.673Z,17.85
2023-02-13T07:15:15.207Z,18.00
2023-02-13T07:17:43.044Z,16.45
2023-02-13T07:20:11.382Z,15.98
2023-02-13T07:22:39.162Z,15.18
2023-02-13T07:25:07.381Z,16.70
2023-02-13T07:27:35.131Z,16.58
2023-02-13T07:30:03.651Z,16.60
2023-02-13T07:32:31.907Z,16.70
2023-02-13T07:35:02.436Z,16.33
2023-02-13T07:37:33.486Z,10.80
2023-02-13T07:40:01.381Z,16.52
2023-02-13T07:42:35.501Z,15.77
2023-02-13T07:45:08.388Z,16.20
2023-02-13T07:47:36.135Z,15.57
2023-02-13T07:50:06.109Z,15.80
2023-02-13T07:52:36.167Z,15.02
2023-02-13T07:55:06.443Z,15.77
2023-02-13T07:57:34.567Z,15.52
2023-02-13T08:00:06.198Z,14.87
2023-02-13T08:02:39.713Z,15.30
2023-02-13T08:05:11.167Z,16.58
2023-02-13T08:07:39.043Z,16.77
2023-02-13T08:10:27.477Z,17.77
2023-02-13T08:12:55.538Z,17.52
2023-02-13T08:15:23.937Z,18.23
2023-02-13T08:17:53.848Z,14.20
2023-02-13T08:20:21.941Z,16.33
2023-02-13T08:22:52.397Z,16.02
2023-02-13T08:25:20.285Z,17.10
2023-02-13T08:27:48.337Z,14.45
2023-02-13T08:30:16.539Z,14.70
2023-02-13T08:32:53.865Z,15.73
2023-02-13T08:35:26.710Z,16.00
2023-02-13T08:37:55.862Z,13.43
2023-02-13T08:40:25.462Z,16.60
2023-02-13T08:43:01.470Z,17.35
2023-02-13T08:45:29.582Z,17.08
2023-02-13T08:47:59.023Z,18.63
2023-02-13T08:50:28.171Z,17.52
2023-02-13T08:53:16.176Z,18.90
2023-02-13T08:55:51.173Z,13.50
2023-02-13T08:58:19.026Z,17.27
2023-02-13T09:00:47.161Z,16.33
2023-02-13T09:03:15.842Z,15.13
2023-02-13T09:05:45.362Z,16.33
2023-02-13T09:08:13.817Z,17.75
2023-02-13T09:10:45.902Z,15.82
2023-02-13T09:13:13.623Z,17.40
2023-02-13T09:15:43.026Z,14.85
2023-02-13T09:18:11.008Z,15.88
2023-02-13T09:20:38.862Z,16.30
2023-02-13T09:23:06.503Z,19.70
2023-02-13T09:25:34.272Z,17.92
2023-02-13T09:28:02.213Z,16.05
2023-02-13T09:30:30.351Z,18.05
2023-02-13T09:32:58.170Z,14.55
2023-02-13T09:35:26.004Z,16.40
2023-02-13T09:37:53.691Z,14.30
2023-02-13T09:40:37.502Z,15.38
2023-02-13T09:43:29.505Z,14.43
2023-02-13T09:46:14.694Z,15.93
2023-02-13T09:48:46.267Z,15.07
2023-02-13T09:54:01.772Z,15.77
2023-02-13T09:56:41.843Z,14.57
2023-02-13T09:59:44.517Z,12.98
2023-02-13T10:02:56.146Z,15.55
2023-02-13T10:05:58.624Z,15.52
2023-02-13T10:08:49.498Z,13.93
2023-02-13T10:11:54.022Z,11.23
2023-02-13T10:14:52.301Z,16.05
2023-02-13T10:17:45.199Z,17.42
2023-02-13T10:20:24.906Z,16.58
2023-02-13T10:23:32.678Z,19.83
2023-02-13T10:26:20.214Z,23.08
2023-02-13T10:29:21.784Z,20.92
2023-02-13T10:31:52.505Z,18.13
2023-02-13T10:34:25.297Z,20.10
2023-02-13T10:36:53.357Z,19.00
2023-02-13T10:39:30.336Z,18.30
2023-02-13T10:42:44.921Z,17.10
2023-02-13T10:45:46.900Z,15.80
2023-02-13T10:48:34.425Z,16.13
2023-02-13T10:51:35.932Z,14.40
2023-02-13T10:54:32.495Z,16.55
2023-02-13T10:57:14.451Z,15.88
2023-02-13T11:00:03.459Z,15.38
2023-02-13T11:02:34.684Z,15.25
2023-02-13T11:05:18.145Z,14.32
2023-02-13T11:07:47.586Z,13.93
2023-02-13T11:10:20.657Z,14.57
2023-02-13T11:12:50.174Z,13.52
2023-02-13T11:15:28.822Z,16.30
2023-02-13T11:18:03.462Z,13.13
2023-02-13T11:20:44.467Z,19.45
2023-02-13T11:23:30.697Z,16.42
2023-02-13T11:26:10.933Z,14.15
2023-02-13T11:28:56.830Z,13.98
2023-02-13T11:31:37.813Z,17.15
2023-02-13T11:34:27.278Z,12.98
2023-02-13T11:37:22.402Z,13.85
2023-02-13T11:39:54.934Z,15.38
2023-02-13T11:42:37.234Z,14.10
2023-02-13T11:45:23.812Z,14.35
2023-02-13T11:47:54.206Z,14.93
2023-02-13T11:50:35.728Z,13.85
2023-02-13T11:56:15.296Z,13.00
2023-02-13T11:58:43.603Z,13.80
2023-02-13T12:01:20.280Z,13.48
2023-02-13T12:04:16.179Z,16.38
2023-02-13T12:07:00.959Z,13.38
2023-02-13T12:09:30.633Z,13.02
2023-02-13T12:12:04.179Z,15.38
2023-02-13T12:14:45.090Z,14.75
2023-02-13T12:17:31.797Z,15.13
2023-02-13T12:20:01.382Z,13.35
2023-02-13T12:22:38.635Z,14.15
2023-02-13T12:25:33.890Z,13.13
2023-02-13T12:28:33.202Z,13.52
2023-02-13T12:31:20.204Z,12.85
2023-02-13T12:34:57.393Z,14.85
2023-02-13T12:37:55.367Z,14.85
2023-02-13T12:40:47.917Z,14.48
2023-02-13T12:43:46.533Z,12.82
2023-02-13T12:46:41.303Z,15.30
2023-02-13T12:49:46.581Z,15.98
2023-02-13T12:52:33.995Z,14.55
2023-02-13T12:55:13.523Z,12.93
2023-02-13T12:58:17.366Z,13.00
2023-02-13T13:01:30.240Z,12.98
2023-02-13T13:04:40.379Z,14.13
2023-02-13T13:07:25.966Z,14.82
2023-02-13T13:10:25.361Z,13.35
2023-02-13T13:13:27.836Z,13.27
2023-02-13T13:16:32.724Z,12.68
2023-02-13T13:19:12.500Z,12.23
2023-02-13T13:21:46.380Z,9.80
2023-02-13T13:24:49.280Z,10.38
2023-02-13T13:27:37.844Z,11.40
2023-02-13T13:30:16.083Z,11.20
2023-02-13T13:32:45.961Z,11.93
2023-02-13T13:35:19.972Z,11.73
2023-02-13T13:38:18.343Z,10.48
2023-02-13T13:41:00.317Z,11.38
2023-02-13T13:43:40.669Z,10.48
2023-02-13T13:46:45.884Z,11.93
2023-02-13T13:49:53.582Z,10.48
2023-02-13T13:52:32.948Z,10.00
2023-02-13T13:55:03.089Z,12.55
2023-02-13T13:57:40.267Z,11.15
2023-02-13T14:00:14.032Z,12.10
2023-02-13T14:02:45.222Z,13.23
2023-02-13T14:05:27.446Z,10.97
2023-02-13T14:07:58.764Z,11.98
2023-02-13T14:10:26.736Z,15.23
2023-02-13T14:12:58.395Z,12.27
2023-02-13T14:15:38.332Z,12.35
2023-02-13T14:18:14.583Z,11.23
2023-02-13T14:20:50.432Z,15.38
2023-02-13T14:23:50.556Z,12.05
2023-02-13T14:26:18.359Z,12.48
2023-02-13T14:28:49.178Z,11.40
2023-02-13T14:31:39.237Z,12.63
2023-02-13T14:34:16.966Z,10.45
2023-02-13T14:37:07.172Z,11.85
2023-02-13T14:39:35.934Z,10.50
2023-02-13T14:42:23.288Z,11.93
2023-02-13T14:44:56.413Z,11.52
2023-02-13T14:47:42.628Z,11.95
2023-02-13T14:50:30.594Z,11.38
2023-02-13T14:53:02.851Z,11.93
2023-02-13T14:55:48.212Z,10.88
2023-02-13T14:58:43.210Z,14.20
2023-02-13T15:01:35.739Z,11.02
2023-02-13T15:04:28.165Z,10.32
2023-02-13T15:07:00.193Z,12.10
2023-02-13T15:09:41.326Z,13.15
2023-02-13T15:12:36.259Z,12.10
2023-02-13T15:15:32.471Z,11.75
2023-02-13T15:18:13.444Z,12.02
2023-02-13T15:20:43.125Z,10.63
2023-02-13T15:23:26.679Z,10.25
2023-02-13T15:26:04.447Z,11.07
2023-02-13T15:28:34.274Z,10.25
2023-02-13T15:31:21.699Z,10.40
2023-02-13T15:33:51.435Z,9.82
2023-02-13T15:36:25.365Z,10.73
2023-02-13T15:39:01.003Z,14.40
2023-02-13T15:41:45.244Z,13.82
2023-02-13T15:44:36.981Z,12.38
2023-02-13T15:47:17.382Z,11.85
2023-02-13T15:49:48.763Z,13.77
2023-02-13T15:55:06.517Z,10.70
2023-02-13T15:57:35.441Z,11.45
2023-02-13T16:00:04.254Z,11.93
2023-02-13T16:02:47.838Z,11.05
2023-02-13T16:05:26.488Z,10.23
2023-02-13T16:08:31.016Z,10.32
2023-02-13T16:11:27.034Z,12.30
2023-02-13T16:14:21.229Z,10.45
2023-02-13T16:17:03.097Z,10.98
2023-02-13T16:19:41.895Z,11.63
2023-02-13T16:22:24.629Z,13.93
2023-02-13T16:24:58.185Z,10.65
2023-02-13T16:27:28.287Z,12.27
2023-02-13T16:30:07.790Z,11.88
2023-02-13T16:32:41.393Z,16.00
2023-02-13T16:35:28.969Z,12.50
2023-02-13T16:38:01.725Z,12.52
2023-02-13T16:40:43.058Z,10.98
2023-02-13T16:43:35.581Z,12.48
2023-02-13T16:46:14.985Z,12.00
2023-02-13T16:48:56.481Z,13.13
2023-02-13T16:51:30.379Z,11.27
2023-02-13T16:54:28.492Z,14.05
2023-02-13T16:57:14.739Z,15.02
2023-02-13T16:59:48.647Z,13.73
2023-02-13T17:02:23.860Z,12.85
2023-02-13T17:05:08.386Z,12.98
2023-02-13T17:07:48.501Z,11.85
2023-02-13T17:10:31.064Z,13.68
2023-02-13T17:13:02.995Z,14.38
2023-02-13T17:15:32.693Z,11.40
2023-02-13T17:18:00.751Z,12.65
2023-02-13T17:20:32.400Z,12.35
2023-02-13T17:23:04.356Z,13.25
2023-02-13T17:25:36.052Z,14.25
2023-02-13T17:28:18.847Z,14.38
2023-02-13T17:30:48.498Z,12.60
2023-02-13T17:33:35.443Z,16.33
2023-02-13T17:36:03.359Z,14.88
2023-02-13T17:38:31.271Z,13.23
2023-02-13T17:41:00.595Z,15.30
2023-02-13T17:43:29.957Z,32.22
2023-02-13T17:46:01.221Z,29.65
2023-02-13T17:48:29.402Z,27.27
2023-02-13T17:50:57.674Z,19.80
2023-02-13T17:53:29.975Z,20.63
2023-02-13T17:55:58.298Z,16.98
2023-02-13T17:58:29.398Z,17.42
2023-02-13T18:00:57.906Z,15.35
2023-02-13T18:03:25.927Z,17.02
2023-02-13T18:05:53.628Z,18.77
2023-02-13T18:08:21.388Z,18.75
2023-02-13T18:10:49.478Z,18.98
2023-02-13T18:13:17.534Z,18.33
2023-02-13T18:15:45.494Z,20.80
2023-02-13T18:18:16.235Z,20.35
2023-02-13T18:20:45.053Z,25.45
2023-02-13T18:23:13.901Z,20.65
2023-02-13T18:25:41.787Z,23.27
2023-02-13T18:28:09.564Z,21.10
2023-02-13T18:30:42.988Z,14.63
2023-02-13T18:33:11.062Z,18.50
2023-02-13T18:35:40.978Z,21.58
2023-02-13T18:38:08.769Z,21.20
2023-02-13T18:40:36.761Z,21.48
2023-02-13T18:43:04.676Z,23.77
2023-02-13T18:45:32.560Z,28.88
2023-02-13T18:48:02.356Z,47.88
2023-02-13T18:50:30.098Z,54.35
2023-02-13T18:52:58.003Z,54.03
2023-02-13T18:55:28.409Z,43.70
2023-02-13T18:57:56.413Z,42.85
2023-02-13T19:00:26.866Z,39.53
2023-02-13T19:02:55.530Z,34.38
2023-02-13T19:05:23.537Z,25.08
2023-02-13T19:07:54.157Z,20.10
2023-02-13T19:10:25.190Z,23.85
2023-02-13T19:12:53.343Z,14.50
2023-02-13T19:15:21.338Z,15.80
2023-02-13T19:17:49.180Z,14.52
2023-02-13T19:20:17.178Z,14.32
2023-02-13T19:22:45.023Z,13.75
2023-02-13T19:25:12.937Z,13.13
2023-02-13T19:27:40.712Z,13.95
2023-02-13T19:30:10.581Z,14.52
2023-02-13T19:32:38.486Z,15.00
2023-02-13T19:35:08.901Z,15.25
2023-02-13T19:37:43.750Z,14.07
2023-02-13T19:40:14.015Z,14.52
2023-02-13T19:42:42.329Z,13.20
2023-02-13T19:45:10.657Z,12.82
2023-02-13T19:47:38.399Z,17.27
2023-02-13T19:50:07.460Z,15.85
2023-02-13T19:52:35.400Z,13.48
2023-02-13T19:55:03.434Z,15.90
2023-02-13T19:57:33.753Z,17.50
2023-02-13T20:00:06.032Z,12.50
2023-02-13T20:02:39.742Z,21.25
2023-02-13T20:05:08.828Z,19.00
2023-02-13T20:07:36.564Z,19.63
2023-02-13T20:10:06.437Z,19.35
2023-02-13T20:12:34.154Z,16.65
2023-02-13T20:15:02.598Z,17.20
2023-02-13T20:17:30.435Z,17.30
2023-02-13T20:19:58.953Z,17.90
2023-02-13T20:22:26.712Z,23.05
2023-02-13T20:24:54.420Z,29.05
2023-02-13T20:27:22.276Z,59.97
2023-02-13T20:29:51.389Z,38.30
2023-02-13T20:32:19.435Z,32.92
2023-02-13T20:34:59.462Z,31.23
2023-02-13T20:37:27.906Z,24.10
2023-02-13T20:39:55.795Z,22.00
2023-02-13T20:42:24.275Z,19.05
2023-02-13T20:44:52.235Z,20.52
2023-02-13T20:47:20.243Z,21.23
2023-02-13T20:49:48.382Z,22.90
2023-02-13T20:52:16.281Z,23.70
2023-02-13T20:54:44.108Z,22.08
2023-02-13T20:57:15.703Z,20.52
2023-02-13T21:02:13.158Z,17.25
2023-02-13T21:04:41.033Z,17.55
2023-02-13T21:07:09.367Z,22.52
2023-02-13T21:09:37.820Z,21.50
2023-02-13T21:12:05.947Z,20.52
2023-02-13T21:14:33.921Z,19.85
2023-02-13T21:17:01.961Z,19.27
2023-02-13T21:19:31.334Z,15.00
2023-02-13T21:22:11.926Z,16.02
2023-02-13T21:24:42.318Z,19.05
2023-02-13T21:27:11.100Z,10.77
2023-02-13T21:29:39.052Z,15.85
2023-02-13T21:32:07.023Z,18.48
2023-02-13T21:34:35.213Z,16.52
2023-02-13T21:37:03.340Z,16.35
2023-02-13T21:39:31.225Z,14.70
2023-02-13T21:41:59.063Z,19.85
2023-02-13T21:44:27.081Z,16.23
2023-02-13T21:46:54.951Z,15.93
2023-02-13T21:49:25.005Z,18.10
2023-02-13T21:51:52.989Z,16.27
2023-02-13T21:54:20.791Z,16.73
2023-02-13T21:56:48.719Z,18.80
2023-02-13T21:59:17.701Z,15.57
2023-02-13T22:01:50.212Z,15.15
2023-02-13T22:04:18.706Z,17.88
2023-02-13T22:06:52.640Z,18.95
2023-02-13T22:09:21.873Z,15.05
2023-02-13T22:11:51.796Z,16.63
2023-02-13T22:14:19.882Z,16.77
2023-02-13T22:16:51.646Z,16.80
2023-02-13T22:19:21.202Z,16.73
2023-02-13T22:21:49.475Z,18.77
2023-02-13T22:24:17.347Z,17.58
2023-02-13T22:26:45.406Z,15.52
2023-02-13T22:29:17.722Z,16.73
2023-02-13T22:31:46.630Z,15.85
2023-02-13T22:34:15.570Z,14.82
2023-02-13T22:36:43.346Z,15.48
2023-02-13T22:39:12.078Z,15.75
2023-02-13T22:41:40.988Z,14.93
2023-02-13T22:44:08.844Z,15.75
2023-02-13T22:46:36.642Z,15.38
2023-02-13T22:49:04.605Z,15.43
2023-02-13T22:51:35.370Z,15.88
2023-02-13T22:54:04.453Z,13.63
2023-02-13T22:56:32.882Z,16.38
2023-02-13T22:59:01.074Z,16.17
2023-02-13T23:01:29.651Z,17.25
2023-02-13T23:04:00.967Z,17.08
2023-02-13T23:06:29.067Z,16.95
2023-02-13T23:08:57.506Z,15.95
2023-02-13T23:11:46.344Z,17.00
2023-02-13T23:14:15.076Z,14.73
2023-02-13T23:17:01.634Z,15.52
2023-02-13T23:19:30.532Z,16.15
2023-02-13T23:22:00.368Z,15.52
2023-02-13T23:24:29.941Z,15.55
2023-02-13T23:26:59.591Z,17.45
2023-02-13T23:29:27.583Z,17.17
2023-02-13T23:31:56.065Z,16.85
2023-02-13T23:34:24.290Z,17.00
2023-02-13T23:36:51.998Z,18.63
2023-02-13T23:39:20.374Z,18.38
2023-02-13T23:41:48.140Z,17.52
2023-02-13T23:44:15.807Z,17.73
2023-02-13T23:46:43.583Z,21.05
2023-02-13T23:49:11.446Z,22.05
2023-02-13T23:51:39.210Z,19.75
2023-02-13T23:54:07.190Z,20.70
2023-02-13T23:56:35.127Z,20.77
2023-02-13T23:59:02.969Z,19.67
